Bellaire, TX (77401)

2:17 AM CST on January 30, 2015 (GMT -0600)
Inner-Loop Bellaire | Change Station
CLOSE
Current Station
Personal Weather Station
Location: Bellaire, TX
Elevation: 40 ft
Nearby Weather Stations

Elev 40 ft 29.71 °N, 95.45 °W | Updated 3 seconds ago

Partly Cloudy
Partly Cloudy
59.4 °F
Feels Like 59.4 °F
N
2.0
Wind Variable Wind from NNE
Gusts 10.0 mph

Today
High -- | Low -- °F
--% Chance of Precip.
Yesterday
High -- | Low -- °F
Precip. -- in
7:12 AM 5:57 PM
Waxing Gibbous, 81% visible
Pressure 30.29 in
Visibility 10.0 miles
Clouds Clear
Dew Point 45 °F
Humidity 58%
Rainfall 0.00 in
Snow Depth Not available.
UV 0 out of 12
Pollen 7.00 out of 12
Air Quality Not available.
Flu Activity Not available.
METAR KMCJ 300755Z AUTO 36013KT 10SM CLR 15/04 A3029 RMK AO1

More Conditions Fewer Conditions

Pressure 30.29 in
Visibility 10.0 miles
Clouds Clear
Dew Point 45 °F
Humidity 58%
Rainfall 0.00 in
Snow Depth Not available.
UV 0 out of 12
Pollen 7.00 out of 12
Air Quality Not available.
Flu Activity Not available.
METAR KMCJ 300755Z AUTO 36013KT 10SM CLR 15/04 A3029 RMK AO1

More Conditions Fewer Conditions

10-Day Weather Forecast

Almanac

Astronomy

Jan. 30, 2015 Rise Set
Actual Time
Civil Twilight
Nautical Twilight
Astronomical Twilight
Moon
Length of Visible Light
Length of Day
Tomorrow will be .
, % of the Moon is Illuminated

Today's Extremes

State Highs State Lows

Community

WunderPhotos

Upload Photos

1,791,726 photos uploaded!

WunderBlogs® & News

Nearby

Air Quality

  Air Quality AQ Index Pollutant
Not available.

Snow Depth

Station Depth Elevation

Earthquake Activity

City Distance Mag. Time & Date
Minimum magnitude displayed is 2.5.

Coastal Water Temperatures

Place Temperature

Nearby Weather Stations